Date,TemperatureHighF,TemperatureAvgF,TemperatureLowF,DewpointHighF,DewpointAvgF,DewpointLowF,HumidityHigh,HumidityAvg,HumidityLow,PressureMaxIn,PressureMinIn,WindSpeedMaxMPH,WindSpeedAvgMPH,GustSpeedMaxMPH,PrecipitationSumIn
2013-3-1,40,38,33,39,37,33,100,98,92,0.00,40.00,8,4,19,0.00
2013-3-2,44,35,29,40,34,29,100,96,76,0.00,40.00,6,2,10,0.00
2013-3-3,42,33,28,38,32,28,100,96,82,0.00,40.00,5,2,9,0.00
2013-3-4,46,32,25,33,28,24,100,85,45,0.00,40.00,6,2,10,0.00
2013-3-5,40,29,20,27,22,19,100,78,44,0.00,40.00,4,2,9,0.00
2013-3-6,40,29,21,30,24,20,100,83,54,0.00,40.00,6,2,10,0.00
2013-3-7,42,31,22,31,25,21,100,80,50,0.00,40.00,6,2,13,0.00
2013-3-8,44,35,26,36,30,25,100,84,62,0.00,40.00,10,4,20,0.00
2013-3-9,38,36,33,38,36,33,100,100,96,0.00,40.00,9,4,16,0.00
2013-3-10,41,36,33,38,35,33,100,97,85,0.00,40.00,7,3,12,0.00
2013-3-11,36,35,33,36,35,32,100,99,92,0.00,40.00,10,5,17,0.00
2013-3-12,35,32,29,33,23,14,100,71,51,0.00,40.00,11,6,24,0.00
2013-3-13,28,25,21,17,13,9,80,59,45,0.00,40.00,11,4,23,0.00
2013-3-14,30,24,17,18,14,11,91,68,48,0.00,40.00,8,4,14,0.00
2013-3-15,29,24,21,24,20,13,95,83,59,0.00,40.00,8,4,15,0.00
2013-3-16,31,26,19,27,24,18,100,90,77,0.00,40.00,6,2,10,0.00
2013-3-17,29,25,21,26,16,11,100,70,46,0.00,40.00,5,3,10,0.00
2013-3-18,29,22,11,26,19,10,100,88,60,0.00,40.00,6,2,14,0.00
2013-3-19,32,27,18,30,26,17,100,97,92,0.00,40.00,4,1,8,0.00
2013-3-20,31,21,14,23,16,12,100,81,53,0.00,40.00,5,3,9,0.00
2013-3-21,32,22,13,18,15,12,95,77,48,0.00,40.00,6,2,10,0.00
2013-3-22,35,24,12,24,18,11,95,79,58,0.00,40.00,7,2,13,0.00
2013-3-23,39,32,23,29,26,22,95,79,64,0.00,40.00,10,4,20,0.00
2013-3-24,45,37,33,38,34,29,96,87,70,0.00,40.00,6,2,14,0.00
2013-3-25,43,40,36,42,39,36,100,96,92,0.00,40.00,12,5,23,0.00
2013-3-26,41,37,33,36,30,26,100,77,64,0.00,40.00,9,5,18,0.00
2013-3-27,42,35,29,31,27,25,92,72,52,0.00,40.00,7,2,13,0.00
2013-3-28,41,34,29,30,27,25,92,77,52,0.00,40.00,6,2,10,0.00
2013-3-29,44,36,29,34,28,24,95,73,52,0.00,40.00,6,2,12,0.00
2013-3-30,42,38,34,40,36,-100,100,97,92,0.00,40.00,10,6,17,0.00
2013-3-31,43,38,33,40,37,33,100,96,82,0.00,40.00,7,2,12,0.00